EDQP weather

Rosenthal-Field Plössen Airport
Speichersdorf, Bavaria, Germany

Public forecast

Using degrees Celsius for public forecast. Weather courtesy of forecast.io.

METAR (pilot weather report)

Closest report is Grafenwohr Army Air Field, 11.5 nm (21.3 km) SSE. Retrieved 2019/06/16 02:30 UTC (25 minutes ago):

ETIC 160230Z AUTO 21003KT 9999 -RA OVC070 16/16 A3006 RMK AO2 DZE00RAB30 SLP168 $

TAF (pilot weather forecast)

Closest forecast is Grafenwohr Army Air Field, 11.5 nm (21.3 km) SSE. Retrieved 2019/06/15 22:08 UTC (5 hours ago):

TAF ETIC 152202Z 1522/1704 32006KT 8000 -SHRA BKN030 QNH2998INS TEMPO 1523/1601 33015KT 8000 -TSRA BKN020CB BECMG 1608/1609 02009KT 9999 NSW BKN030 QNH3013INS TX25/1614Z TN15/1604Z